金門航空站 - ATIS

METAR RCBS 311030Z 22012KT 8000 FEW010 SCT040 BKN070 27/26 Q1010 NOSIG RMK 22011KT/R06 A2983(O)=

站台狀態:Offline
最後更新:2020-05-31 18:30:01